Kendallville, Iowa
Current Conditions -  °F | °C
As of 10:15 AM on Sunday 25 Jan 2015 (Local Time) from KFKA Reporting Station
Overcast Overcast  
Wind Chill: 16°   Ceiling: 800
Heat Index: 27°   Visibility: 10mi
Dew Point: 23°   Wind: 13mph
Humidity: 88%   Direction: 50°NE
Pressure: 29.91"   Gusts: NA
Location:  43.363°N, 92.1685°W
Report Text: KFKA 251615Z AUTO 05011KT 10SM OVC008 M03/M05 A2991 RMK AO2 T10301048
Loading
Personal Weather Stations






























Interactive Weather Map New forecast layout! Learn more

10-Day Weather Forecast

Advertisements
Track Severe Weather on mobile